createdAt,value
2023-03-29T00:00:16.926Z,0.42
2023-03-29T00:03:04.730Z,0.39
2023-03-29T00:05:35.109Z,0.37
2023-03-29T00:08:04.611Z,0.34
2023-03-29T00:10:32.782Z,0.32
2023-03-29T00:13:00.524Z,0.30
2023-03-29T00:15:28.189Z,0.26
2023-03-29T00:17:56.155Z,0.22
2023-03-29T00:20:23.918Z,0.19
2023-03-29T00:22:51.886Z,0.16
2023-03-29T00:25:19.550Z,0.13
2023-03-29T00:27:47.309Z,0.11
2023-03-29T00:30:15.600Z,0.08
2023-03-29T00:32:43.364Z,0.06
2023-03-29T00:35:11.224Z,0.04
2023-03-29T00:37:38.877Z,-0.02
2023-03-29T00:40:11.253Z,-0.06
2023-03-29T00:42:38.923Z,-0.09
2023-03-29T00:45:07.295Z,-0.12
2023-03-29T00:47:35.080Z,-0.13
2023-03-29T00:50:02.821Z,-0.12
2023-03-29T00:52:30.489Z,-0.14
2023-03-29T00:54:58.142Z,-0.13
2023-03-29T00:57:27.695Z,-0.12
2023-03-29T00:59:55.614Z,-0.12
2023-03-29T01:02:23.410Z,-0.11
2023-03-29T01:04:51.145Z,-0.11
2023-03-29T01:07:21.566Z,-0.11
2023-03-29T01:09:49.438Z,-0.12
2023-03-29T01:12:20.172Z,-0.13
2023-03-29T01:14:47.942Z,-0.13
2023-03-29T01:17:16.317Z,-0.13
2023-03-29T01:19:43.984Z,-0.14
2023-03-29T01:22:13.701Z,-0.16
2023-03-29T01:24:42.241Z,-0.19
2023-03-29T01:27:10.032Z,-0.20
2023-03-29T01:29:37.797Z,-0.24
2023-03-29T01:32:05.624Z,-0.26
2023-03-29T01:34:33.533Z,-0.31
2023-03-29T01:37:01.191Z,-0.34
2023-03-29T01:39:28.955Z,-0.38
2023-03-29T01:41:56.719Z,-0.41
2023-03-29T01:44:24.484Z,-0.43
2023-03-29T01:46:52.149Z,-0.46
2023-03-29T01:49:19.806Z,-0.48
2023-03-29T01:51:47.468Z,-0.50
2023-03-29T01:54:15.141Z,-0.54
2023-03-29T01:56:42.933Z,-0.55
2023-03-29T01:59:11.487Z,-0.56
2023-03-29T02:01:39.181Z,-0.58
2023-03-29T02:04:07.008Z,-0.59
2023-03-29T02:06:34.772Z,-0.61
2023-03-29T02:09:05.095Z,-0.64
2023-03-29T02:11:32.753Z,-0.66
2023-03-29T02:14:00.928Z,-0.66
2023-03-29T02:16:28.899Z,-0.68
2023-03-29T02:18:57.171Z,-0.69
2023-03-29T02:21:24.940Z,-0.71
2023-03-29T02:23:54.868Z,-0.74
2023-03-29T02:26:24.129Z,-0.76
2023-03-29T02:28:53.144Z,-0.78
2023-03-29T02:31:21.576Z,-0.81
2023-03-29T02:33:49.386Z,-0.81
2023-03-29T02:36:17.849Z,-0.85
2023-03-29T02:38:46.656Z,-0.87
2023-03-29T02:41:14.420Z,-0.88
2023-03-29T02:43:42.490Z,-0.90
2023-03-29T02:46:10.192Z,-0.93
2023-03-29T02:48:38.028Z,-0.96
2023-03-29T02:51:05.991Z,-0.98
2023-03-29T02:53:33.761Z,-0.99
2023-03-29T02:56:02.473Z,-1.01
2023-03-29T02:58:31.850Z,-1.03
2023-03-29T03:00:59.829Z,-1.04
2023-03-29T03:03:27.929Z,-1.03
2023-03-29T03:05:55.650Z,-1.04
2023-03-29T03:08:23.411Z,-1.04
2023-03-29T03:10:51.076Z,-1.05
2023-03-29T03:13:18.938Z,-1.06
2023-03-29T03:15:49.426Z,-1.06
2023-03-29T03:18:17.847Z,-1.08
2023-03-29T03:20:46.844Z,-1.10
2023-03-29T03:23:14.604Z,-1.12
2023-03-29T03:25:42.261Z,-1.13
2023-03-29T03:28:10.445Z,-1.14
2023-03-29T03:30:38.812Z,-1.14
2023-03-29T03:33:06.506Z,-1.13
2023-03-29T03:35:35.104Z,-1.13
2023-03-29T03:38:02.922Z,-1.16
2023-03-29T03:40:30.690Z,-1.17
2023-03-29T03:42:58.460Z,-1.19
2023-03-29T03:45:26.322Z,-1.21
2023-03-29T03:47:54.241Z,-1.23
2023-03-29T03:50:21.951Z,-1.24
2023-03-29T03:52:49.627Z,-1.26
2023-03-29T03:55:17.993Z,-1.29
2023-03-29T03:57:45.919Z,-1.31
2023-03-29T04:00:19.983Z,-1.33
2023-03-29T04:02:48.482Z,-1.34
2023-03-29T04:05:17.339Z,-1.34
2023-03-29T04:07:45.001Z,-1.35
2023-03-29T04:10:12.764Z,-1.35
2023-03-29T04:12:40.531Z,-1.36
2023-03-29T04:15:08.902Z,-1.35
2023-03-29T04:17:37.351Z,-1.35
2023-03-29T04:20:12.798Z,-1.35
2023-03-29T04:22:41.344Z,-1.35
2023-03-29T04:25:10.571Z,-1.36
2023-03-29T04:27:38.412Z,-1.36
2023-03-29T04:30:07.472Z,-1.36
2023-03-29T04:32:35.253Z,-1.36
2023-03-29T04:35:04.955Z,-1.37
2023-03-29T04:37:32.714Z,-1.39
2023-03-29T04:40:09.208Z,-1.42
2023-03-29T04:42:37.640Z,-1.47
2023-03-29T04:45:07.396Z,-1.51
2023-03-29T04:47:36.723Z,-1.53
2023-03-29T04:50:04.535Z,-1.56
2023-03-29T04:52:33.561Z,-1.57
2023-03-29T04:55:01.806Z,-1.59
2023-03-29T04:57:29.570Z,-1.61
2023-03-29T04:59:57.336Z,-1.63
2023-03-29T05:02:25.141Z,-1.64
2023-03-29T05:04:52.864Z,-1.64
2023-03-29T05:07:20.626Z,-1.65
2023-03-29T05:09:48.797Z,-1.42
2023-03-29T05:12:16.561Z,1.49
2023-03-29T05:14:44.237Z,4.86
2023-03-29T05:17:11.989Z,5.19
2023-03-29T05:19:39.761Z,3.55
2023-03-29T05:22:07.731Z,2.39
2023-03-29T05:24:35.513Z,1.59
2023-03-29T05:27:03.971Z,1.07
2023-03-29T05:29:34.389Z,0.68
2023-03-29T05:32:02.198Z,0.36
2023-03-29T05:34:31.659Z,0.10
2023-03-29T05:36:59.731Z,-0.10
2023-03-29T05:39:27.491Z,-0.28
2023-03-29T05:41:55.254Z,-0.43
2023-03-29T05:44:23.019Z,-0.56
2023-03-29T05:46:50.893Z,-0.66
2023-03-29T05:49:18.865Z,-0.72
2023-03-29T05:51:46.622Z,-0.76
2023-03-29T05:54:15.304Z,-0.80
2023-03-29T05:56:43.096Z,-0.82
2023-03-29T05:59:10.835Z,-0.85
2023-03-29T06:01:40.234Z,-0.87
2023-03-29T06:04:08.087Z,-0.90
2023-03-29T06:06:36.050Z,-0.90
2023-03-29T06:09:04.347Z,-0.91
2023-03-29T06:11:33.240Z,-0.90
2023-03-29T06:14:02.640Z,-0.87
2023-03-29T06:16:30.437Z,-0.81
2023-03-29T06:18:58.475Z,-0.79
2023-03-29T06:21:27.468Z,-0.78
2023-03-29T06:23:55.136Z,-0.76
2023-03-29T06:26:23.311Z,-0.73
2023-03-29T06:28:52.386Z,-0.69
2023-03-29T06:31:21.293Z,-0.67
2023-03-29T06:33:49.773Z,-0.64
2023-03-29T06:36:17.571Z,-0.60
2023-03-29T06:38:46.222Z,-0.55
2023-03-29T06:41:15.118Z,-0.50
2023-03-29T06:43:42.876Z,-0.44
2023-03-29T06:46:12.563Z,-0.38
2023-03-29T06:48:41.195Z,-0.31
2023-03-29T06:51:08.946Z,-0.26
2023-03-29T06:53:37.007Z,-0.20
2023-03-29T06:56:05.505Z,-0.14
2023-03-29T06:58:33.254Z,-0.10
2023-03-29T07:01:02.574Z,-0.06
2023-03-29T07:03:30.632Z,0.01
2023-03-29T07:06:01.454Z,0.11
2023-03-29T07:08:31.979Z,0.18
2023-03-29T07:11:00.083Z,0.24
2023-03-29T07:13:28.023Z,0.29
2023-03-29T07:15:56.049Z,0.36
2023-03-29T07:18:24.062Z,0.44
2023-03-29T07:20:52.444Z,0.50
2023-03-29T07:23:20.081Z,0.58
2023-03-29T07:25:47.767Z,0.66
2023-03-29T07:28:15.424Z,0.72
2023-03-29T07:30:43.088Z,0.79
2023-03-29T07:33:10.838Z,0.84
2023-03-29T07:35:38.665Z,0.90
2023-03-29T07:38:08.427Z,0.96
2023-03-29T07:40:36.071Z,1.03
2023-03-29T07:43:09.138Z,1.10
2023-03-29T07:45:37.253Z,1.15
2023-03-29T07:48:05.158Z,1.21
2023-03-29T07:50:32.990Z,1.29
2023-03-29T07:53:01.665Z,1.35
2023-03-29T07:55:29.426Z,1.41
2023-03-29T07:57:57.092Z,1.46
2023-03-29T08:00:25.221Z,1.51
2023-03-29T08:02:53.263Z,1.55
2023-03-29T08:05:29.059Z,1.57
2023-03-29T08:08:01.562Z,1.61
2023-03-29T08:10:29.220Z,1.66
2023-03-29T08:12:58.420Z,1.71
2023-03-29T08:15:26.800Z,1.76
2023-03-29T08:17:54.701Z,1.81
2023-03-29T08:20:22.540Z,1.86
2023-03-29T08:22:50.165Z,1.92
2023-03-29T08:25:17.959Z,1.98
2023-03-29T08:27:45.625Z,2.03
2023-03-29T08:30:15.750Z,2.10
2023-03-29T08:32:43.680Z,2.16
2023-03-29T08:35:11.480Z,2.23
2023-03-29T08:37:39.346Z,2.32
2023-03-29T08:40:07.105Z,2.40
2023-03-29T08:42:34.815Z,2.46
2023-03-29T08:45:03.047Z,2.51
2023-03-29T08:47:31.342Z,2.57
2023-03-29T08:49:59.391Z,2.64
2023-03-29T08:52:27.328Z,2.72
2023-03-29T08:54:56.141Z,2.78
2023-03-29T08:57:24.061Z,2.86
2023-03-29T08:59:51.979Z,2.92
2023-03-29T09:02:19.680Z,2.99
2023-03-29T09:04:49.127Z,3.03
2023-03-29T09:07:17.216Z,3.08
2023-03-29T09:09:45.181Z,3.13
2023-03-29T09:12:13.355Z,3.18
2023-03-29T09:14:41.231Z,3.23
2023-03-29T09:17:08.990Z,3.29
2023-03-29T09:19:36.657Z,3.38
2023-03-29T09:22:04.617Z,3.46
2023-03-29T09:24:32.687Z,3.51
2023-03-29T09:27:00.458Z,3.55
2023-03-29T09:29:28.215Z,3.59
2023-03-29T09:31:56.666Z,3.66
2023-03-29T09:34:24.431Z,3.74
2023-03-29T09:36:52.682Z,3.82
2023-03-29T09:39:23.367Z,3.88
2023-03-29T09:41:51.032Z,3.98
2023-03-29T09:44:30.138Z,4.09
2023-03-29T09:46:58.640Z,4.19
2023-03-29T09:49:26.405Z,4.29
2023-03-29T09:51:54.576Z,4.37
2023-03-29T09:54:22.446Z,4.45
2023-03-29T09:56:50.262Z,4.55
2023-03-29T09:59:18.080Z,4.63
2023-03-29T10:01:46.006Z,4.69
2023-03-29T10:04:13.851Z,4.74
2023-03-29T10:06:41.572Z,4.79
2023-03-29T10:09:09.339Z,4.86
2023-03-29T10:11:37.212Z,4.96
2023-03-29T10:14:04.979Z,5.07
2023-03-29T10:16:32.831Z,5.18
2023-03-29T10:19:00.598Z,5.24
2023-03-29T10:21:28.222Z,5.31
2023-03-29T10:23:55.922Z,5.39
2023-03-29T10:26:24.094Z,5.49
2023-03-29T10:28:51.859Z,5.55
2023-03-29T10:31:19.746Z,5.60
2023-03-29T10:33:47.492Z,5.70
2023-03-29T10:36:15.646Z,5.78
2023-03-29T10:38:43.425Z,5.85
2023-03-29T10:41:11.207Z,5.91
2023-03-29T10:43:52.778Z,5.98
2023-03-29T10:46:21.004Z,6.02
2023-03-29T10:48:49.234Z,6.09
2023-03-29T10:51:17.092Z,6.17
2023-03-29T10:53:44.860Z,6.22
2023-03-29T10:56:12.936Z,6.31
2023-03-29T10:58:40.694Z,6.40
2023-03-29T11:01:08.377Z,6.47
2023-03-29T11:03:36.277Z,6.53
2023-03-29T11:06:04.498Z,6.62
2023-03-29T11:08:32.214Z,6.73
2023-03-29T11:11:00.018Z,6.80
2023-03-29T11:13:28.094Z,6.89
2023-03-29T11:15:56.007Z,7.00
2023-03-29T11:18:23.835Z,7.07
2023-03-29T11:20:52.103Z,7.13
2023-03-29T11:23:19.765Z,7.16
2023-03-29T11:25:47.629Z,7.17
2023-03-29T11:28:15.395Z,7.15
2023-03-29T11:30:43.160Z,7.14
2023-03-29T11:33:10.831Z,7.13
2023-03-29T11:35:38.648Z,7.17
2023-03-29T11:38:06.961Z,7.24
2023-03-29T11:40:36.400Z,7.31
2023-03-29T11:43:04.744Z,7.37
2023-03-29T11:45:32.715Z,7.45
2023-03-29T11:48:00.531Z,7.52
2023-03-29T11:50:28.343Z,7.56
2023-03-29T11:52:56.209Z,7.60
2023-03-29T11:55:23.977Z,7.64
2023-03-29T11:57:51.741Z,7.66
2023-03-29T12:00:19.910Z,7.66
2023-03-29T12:02:48.447Z,7.66
2023-03-29T12:05:17.900Z,7.63
2023-03-29T12:07:45.863Z,7.65
2023-03-29T12:10:13.630Z,7.71
2023-03-29T12:12:41.293Z,7.76
2023-03-29T12:15:09.361Z,7.79
2023-03-29T12:17:37.395Z,7.84
2023-03-29T12:20:05.337Z,7.90
2023-03-29T12:22:33.879Z,7.92
2023-03-29T12:25:01.652Z,7.94
2023-03-29T12:27:29.410Z,7.96
2023-03-29T12:29:57.174Z,8.01
2023-03-29T12:32:24.878Z,8.05
2023-03-29T12:34:52.704Z,8.08
2023-03-29T12:37:21.185Z,8.07
2023-03-29T12:39:49.362Z,8.08
2023-03-29T12:42:17.278Z,8.09
2023-03-29T12:44:44.992Z,8.13
2023-03-29T12:47:12.652Z,8.17
2023-03-29T12:49:40.315Z,8.25
2023-03-29T12:52:07.978Z,8.30
2023-03-29T12:54:35.860Z,8.34
2023-03-29T12:57:03.543Z,8.37
2023-03-29T12:59:31.370Z,8.42
2023-03-29T13:01:59.071Z,8.48
2023-03-29T13:04:27.208Z,8.53
2023-03-29T13:06:56.372Z,8.57
2023-03-29T13:09:24.077Z,8.61
2023-03-29T13:11:51.852Z,8.68
2023-03-29T13:14:19.603Z,8.74
2023-03-29T13:16:47.361Z,8.81
2023-03-29T13:19:15.023Z,8.86
2023-03-29T13:21:42.784Z,8.91
2023-03-29T13:24:10.441Z,8.96
2023-03-29T13:26:38.108Z,8.99
2023-03-29T13:29:05.766Z,9.00
2023-03-29T13:31:33.469Z,9.03
2023-03-29T13:34:01.508Z,9.07
2023-03-29T13:36:30.747Z,9.08
2023-03-29T13:39:00.406Z,9.08
2023-03-29T13:41:28.986Z,9.07
2023-03-29T13:43:56.752Z,9.09
2023-03-29T13:46:24.486Z,9.13
2023-03-29T13:48:53.972Z,9.16
2023-03-29T13:51:21.997Z,9.21
2023-03-29T13:53:49.652Z,9.25
2023-03-29T13:56:17.320Z,9.28
2023-03-29T13:58:45.079Z,9.29
2023-03-29T14:01:12.989Z,9.28
2023-03-29T14:03:40.713Z,9.28
2023-03-29T14:06:08.370Z,9.29
2023-03-29T14:08:36.122Z,9.29
2023-03-29T14:11:03.909Z,9.32
2023-03-29T14:13:31.661Z,9.36
2023-03-29T14:16:00.286Z,9.38
2023-03-29T14:18:28.108Z,9.40
2023-03-29T14:20:55.872Z,9.43
2023-03-29T14:23:23.644Z,9.47
2023-03-29T14:25:51.495Z,9.51
2023-03-29T14:28:19.275Z,9.54
2023-03-29T14:30:47.445Z,9.58
2023-03-29T14:33:15.104Z,9.64
2023-03-29T14:35:42.931Z,9.73
2023-03-29T14:38:10.628Z,9.80
2023-03-29T14:40:38.291Z,9.87
2023-03-29T14:43:06.081Z,9.94
2023-03-29T14:45:33.826Z,10.02
2023-03-29T14:48:01.833Z,10.11
2023-03-29T14:50:29.653Z,10.22
2023-03-29T14:52:57.420Z,10.35
2023-03-29T14:55:25.170Z,10.47
2023-03-29T14:57:52.947Z,10.59
2023-03-29T15:00:21.427Z,10.74
2023-03-29T15:02:49.243Z,10.90
2023-03-29T15:05:17.162Z,11.06
2023-03-29T15:07:45.030Z,11.24
2023-03-29T15:10:12.686Z,11.39
2023-03-29T15:12:40.350Z,11.42
2023-03-29T15:15:10.679Z,11.34
2023-03-29T15:17:50.314Z,11.20
2023-03-29T15:20:21.602Z,11.04
2023-03-29T15:22:49.539Z,10.86
2023-03-29T15:25:17.502Z,10.69
2023-03-29T15:27:45.263Z,10.56
2023-03-29T15:30:13.031Z,10.46
2023-03-29T15:32:41.780Z,10.40
2023-03-29T15:35:09.788Z,10.42
2023-03-29T15:37:37.960Z,10.44
2023-03-29T15:40:09.931Z,10.42
2023-03-29T15:42:37.787Z,10.36
2023-03-29T15:45:06.652Z,10.28
2023-03-29T15:47:34.377Z,10.21
2023-03-29T15:50:02.210Z,10.13
2023-03-29T15:52:29.979Z,10.05
2023-03-29T15:54:57.731Z,9.94
2023-03-29T15:57:25.708Z,9.85
2023-03-29T15:59:53.582Z,9.78
2023-03-29T16:02:21.910Z,9.71
2023-03-29T16:04:49.815Z,9.63
2023-03-29T16:07:17.474Z,9.53
2023-03-29T16:09:46.060Z,9.45
2023-03-29T16:12:13.718Z,9.36
2023-03-29T16:14:43.036Z,9.29
2023-03-29T16:17:11.089Z,9.23
2023-03-29T16:19:38.859Z,9.19
2023-03-29T16:22:07.693Z,9.17
2023-03-29T16:24:35.820Z,9.11
2023-03-29T16:27:04.001Z,9.06
2023-03-29T16:29:31.994Z,8.98
2023-03-29T16:32:00.221Z,8.89
2023-03-29T16:34:28.529Z,8.81
2023-03-29T16:36:56.171Z,8.74
2023-03-29T16:39:23.943Z,8.67
2023-03-29T16:41:51.698Z,8.61
2023-03-29T16:44:21.776Z,8.53
2023-03-29T16:46:51.835Z,8.47
2023-03-29T16:49:19.744Z,8.41
2023-03-29T16:51:48.081Z,8.37
2023-03-29T16:54:17.376Z,8.31
2023-03-29T16:56:45.175Z,8.25
2023-03-29T16:59:12.906Z,8.19
2023-03-29T17:01:40.928Z,8.13
2023-03-29T17:04:09.015Z,8.06
2023-03-29T17:06:37.233Z,7.98
2023-03-29T17:09:06.258Z,7.90
2023-03-29T17:11:34.307Z,7.82
2023-03-29T17:14:02.156Z,7.74
2023-03-29T17:16:29.850Z,7.66
2023-03-29T17:18:58.709Z,7.57
2023-03-29T17:21:27.490Z,7.48
2023-03-29T17:23:55.670Z,7.39
2023-03-29T17:26:23.325Z,7.31
2023-03-29T17:28:51.094Z,7.23
2023-03-29T17:31:19.896Z,7.15
2023-03-29T17:33:50.611Z,7.07
2023-03-29T17:36:19.340Z,7.00
2023-03-29T17:38:48.973Z,6.94
2023-03-29T17:41:16.678Z,6.87
2023-03-29T17:43:44.805Z,6.82
2023-03-29T17:46:12.537Z,6.77
2023-03-29T17:48:40.376Z,6.72
2023-03-29T17:51:08.033Z,6.68
2023-03-29T17:53:35.706Z,6.64
2023-03-29T17:56:04.434Z,6.59
2023-03-29T17:58:33.074Z,6.54
2023-03-29T18:01:01.578Z,6.49
2023-03-29T18:03:29.249Z,6.43
2023-03-29T18:05:56.979Z,6.39
2023-03-29T18:08:24.597Z,6.34
2023-03-29T18:10:52.301Z,6.29
2023-03-29T18:13:25.634Z,6.25
2023-03-29T18:15:53.353Z,6.20
2023-03-29T18:18:21.029Z,6.15
2023-03-29T18:20:48.783Z,6.12
2023-03-29T18:23:16.442Z,6.08
2023-03-29T18:25:44.106Z,6.03
2023-03-29T18:28:11.972Z,5.98
2023-03-29T18:30:39.739Z,5.93
2023-03-29T18:33:07.552Z,5.88
2023-03-29T18:35:35.285Z,5.83
2023-03-29T18:38:03.644Z,5.78
2023-03-29T18:40:31.308Z,5.74
2023-03-29T18:42:58.967Z,5.69
2023-03-29T18:45:26.734Z,5.65
2023-03-29T18:47:54.441Z,5.62
2023-03-29T18:50:22.569Z,5.59
2023-03-29T18:52:50.230Z,5.56
2023-03-29T18:55:17.891Z,5.53
2023-03-29T18:57:45.692Z,5.51
2023-03-29T19:00:13.422Z,5.50
2023-03-29T19:02:41.272Z,5.47
2023-03-29T19:05:09.179Z,5.44
2023-03-29T19:07:37.020Z,5.43
2023-03-29T19:10:05.163Z,5.40
2023-03-29T19:12:33.469Z,5.39
2023-03-29T19:15:01.234Z,5.38
2023-03-29T19:17:29.015Z,5.37
2023-03-29T19:19:56.976Z,5.35
2023-03-29T19:22:24.617Z,5.33
2023-03-29T19:24:52.393Z,5.31
2023-03-29T19:27:20.158Z,5.29
2023-03-29T19:29:48.437Z,5.28
2023-03-29T19:32:16.408Z,5.27
2023-03-29T19:34:44.077Z,5.26
2023-03-29T19:37:11.837Z,5.24
2023-03-29T19:39:41.229Z,5.23
2023-03-29T19:42:08.885Z,5.21
2023-03-29T19:44:38.392Z,5.21
2023-03-29T19:47:06.212Z,5.21
2023-03-29T19:49:38.422Z,5.21
2023-03-29T19:52:06.492Z,5.20
2023-03-29T19:54:34.182Z,5.20
2023-03-29T19:57:02.976Z,5.19
2023-03-29T19:59:31.622Z,5.17
2023-03-29T20:01:59.520Z,5.16
2023-03-29T20:04:29.014Z,5.15
2023-03-29T20:06:57.790Z,5.14
2023-03-29T20:09:25.450Z,5.13
2023-03-29T20:11:53.212Z,5.12
2023-03-29T20:14:20.975Z,5.11
2023-03-29T20:16:50.933Z,5.09
2023-03-29T20:19:19.476Z,5.08
2023-03-29T20:21:50.923Z,5.06
2023-03-29T20:24:19.102Z,5.05
2023-03-29T20:26:46.725Z,5.04
2023-03-29T20:29:15.551Z,5.03
2023-03-29T20:31:43.273Z,5.01
2023-03-29T20:34:11.383Z,4.99
2023-03-29T20:36:40.551Z,4.97
2023-03-29T20:39:08.548Z,4.96
2023-03-29T20:41:38.464Z,4.94
2023-03-29T20:44:06.437Z,4.92
2023-03-29T20:46:34.374Z,4.92
2023-03-29T20:49:02.280Z,4.90
2023-03-29T20:51:33.108Z,4.89
2023-03-29T20:54:02.782Z,4.87
2023-03-29T20:56:30.686Z,4.87
2023-03-29T20:58:59.058Z,4.85
2023-03-29T21:01:28.085Z,4.84
2023-03-29T21:03:55.987Z,4.83
2023-03-29T21:06:24.603Z,4.83
2023-03-29T21:08:52.760Z,4.81
2023-03-29T21:11:20.444Z,4.81
2023-03-29T21:13:48.211Z,4.80
2023-03-29T21:16:15.987Z,4.81
2023-03-29T21:18:44.046Z,4.80
2023-03-29T21:21:11.700Z,4.80
2023-03-29T21:23:39.468Z,4.80
2023-03-29T21:26:08.052Z,4.79
2023-03-29T21:28:36.023Z,4.79
2023-03-29T21:31:04.964Z,4.78
2023-03-29T21:33:33.090Z,4.77
2023-03-29T21:36:01.293Z,4.76
2023-03-29T21:38:29.022Z,4.75
2023-03-29T21:40:58.242Z,4.74
2023-03-29T21:43:25.954Z,4.75
2023-03-29T21:45:53.844Z,4.74
2023-03-29T21:48:21.507Z,4.75
2023-03-29T21:50:49.683Z,4.76
2023-03-29T21:53:18.478Z,4.75
2023-03-29T21:55:46.234Z,4.74
2023-03-29T21:58:13.895Z,4.73
2023-03-29T22:00:41.923Z,4.73
2023-03-29T22:03:09.696Z,4.73
2023-03-29T22:05:37.501Z,4.72
2023-03-29T22:08:05.267Z,4.72
2023-03-29T22:10:33.747Z,4.72
2023-03-29T22:13:01.505Z,4.71
2023-03-29T22:15:35.653Z,4.71
2023-03-29T22:18:03.415Z,4.71
2023-03-29T22:20:31.249Z,4.71
2023-03-29T22:22:58.910Z,4.70
2023-03-29T22:25:27.289Z,4.71
2023-03-29T22:27:54.952Z,4.71
2023-03-29T22:30:23.039Z,4.71
2023-03-29T22:32:51.018Z,4.70
2023-03-29T22:35:18.956Z,4.71
2023-03-29T22:37:46.618Z,4.71
2023-03-29T22:40:14.280Z,4.71
2023-03-29T22:42:41.958Z,4.70
2023-03-29T22:45:09.708Z,4.69
2023-03-29T22:47:37.538Z,4.68
2023-03-29T22:50:05.233Z,4.65
2023-03-29T22:52:33.003Z,4.66
2023-03-29T22:55:00.676Z,4.64
2023-03-29T22:57:28.445Z,4.63
2023-03-29T22:59:56.288Z,4.63
2023-03-29T23:02:24.504Z,4.63
2023-03-29T23:04:52.360Z,4.63
2023-03-29T23:07:20.198Z,4.62
2023-03-29T23:09:47.855Z,4.61
2023-03-29T23:12:15.726Z,4.60
2023-03-29T23:14:45.431Z,4.58
2023-03-29T23:17:13.602Z,4.57
2023-03-29T23:19:41.790Z,4.55
2023-03-29T23:22:09.440Z,4.54
2023-03-29T23:24:37.101Z,4.52
2023-03-29T23:27:05.682Z,4.50
2023-03-29T23:29:34.678Z,4.49
2023-03-29T23:32:02.343Z,4.47
2023-03-29T23:34:30.315Z,4.44
2023-03-29T23:36:57.969Z,4.41
2023-03-29T23:39:25.633Z,4.39
2023-03-29T23:41:53.396Z,4.37
2023-03-29T23:44:21.056Z,4.34
2023-03-29T23:46:48.854Z,4.30
2023-03-29T23:49:17.404Z,4.27
2023-03-29T23:51:45.166Z,4.25
2023-03-29T23:54:13.137Z,4.22
2023-03-29T23:56:40.887Z,4.19
2023-03-29T23:59:09.091Z,4.17
